Time;durP1;ratioP1;P1;durP2;ratioP2;P2;SDS_P1;SDS_P2;PMS_P1;PMS_P2;Temp;Humidity;BMP_temperature;BMP_pressure;BME280_temperature;BME280_humidity;BME280_pressure;Samples;Min_cycle;Max_cycle;Signal;HPM_P1;HPM_P2
2022/04/28 00:04:43;;;;;;;3.70;2.38;;;6.80;99.90;;;;;;20776701;28;20465;-83
2022/04/28 00:14:45;;;;;;;3.28;1.35;;;6.70;99.90;;;;;;20781079;28;20098;-83
2022/04/28 00:24:46;;;;;;;2.17;1.00;;;6.60;99.90;;;;;;20761626;28;20035;-83
2022/04/28 00:34:48;;;;;;;4.07;0.95;;;6.50;99.90;;;;;;20754467;28;20046;-83
2022/04/28 00:44:49;;;;;;;2.75;1.10;;;6.40;99.90;;;;;;20797269;28;20076;-83
2022/04/28 00:54:54;;;;;;;2.67;1.02;;;6.40;99.90;;;;;;20790280;28;20036;-83
2022/04/28 01:04:55;;;;;;;9.38;1.33;;;6.20;99.90;;;;;;20797937;28;20112;-83
2022/04/28 01:14:59;;;;;;;2.60;1.08;;;6.20;99.90;;;;;;20778235;28;20041;-83
2022/04/28 01:25:08;;;;;;;3.22;1.30;;;6.20;99.90;;;;;;20814621;28;20132;-84
2022/04/28 01:35:09;;;;;;;6.90;1.63;;;6.10;99.90;;;;;;20792330;28;20345;-84
2022/04/28 01:45:10;;;;;;;4.85;1.17;;;6.00;99.90;;;;;;20794578;28;20145;-84
2022/04/28 01:55:11;;;;;;;2.97;1.35;;;6.10;99.90;;;;;;20792290;28;20034;-84
2022/04/28 02:05:14;;;;;;;3.15;1.50;;;6.00;99.90;;;;;;20792207;28;20041;-84
2022/04/28 02:15:15;;;;;;;2.22;0.90;;;6.00;99.90;;;;;;20791225;28;20040;-84
2022/04/28 02:25:16;;;;;;;5.15;1.17;;;6.00;99.90;;;;;;20797188;28;20060;-83
2022/04/28 02:35:17;;;;;;;3.40;1.33;;;5.90;99.90;;;;;;20772386;28;20473;-84
2022/04/28 02:45:18;;;;;;;2.00;1.25;;;5.80;99.90;;;;;;20791114;28;20045;-83
2022/04/28 02:55:20;;;;;;;5.55;1.90;;;5.70;99.90;;;;;;20770217;28;20468;-83
2022/04/28 03:05:21;;;;;;;6.53;1.70;;;5.60;99.90;;;;;;20787536;28;20404;-84
2022/04/28 03:15:22;;;;;;;4.47;1.73;;;5.60;99.90;;;;;;20778451;28;20041;-84
2022/04/28 03:25:23;;;;;;;7.57;1.73;;;5.50;99.90;;;;;;20812342;28;20063;-83
2022/04/28 03:35:24;;;;;;;3.05;1.60;;;5.40;99.90;;;;;;20785099;28;20049;-84
2022/04/28 03:45:25;;;;;;;3.90;1.35;;;5.40;99.90;;;;;;20785289;28;20044;-84
2022/04/28 03:55:26;;;;;;;4.35;1.40;;;5.60;99.90;;;;;;20764791;28;20037;-84
2022/04/28 04:05:28;;;;;;;5.20;2.30;;;5.60;99.90;;;;;;20758956;28;20120;-84
2022/04/28 04:15:29;;;;;;;6.03;1.40;;;5.50;99.90;;;;;;20764437;28;20029;-84
2022/04/28 04:25:30;;;;;;;4.15;1.35;;;5.50;99.90;;;;;;20763985;28;20045;-83
2022/04/28 04:35:32;;;;;;;4.68;1.80;;;5.60;99.90;;;;;;20790118;28;20045;-84
2022/04/28 04:45:33;;;;;;;5.00;1.83;;;5.50;99.90;;;;;;20773170;28;20049;-84
2022/04/28 04:55:36;;;;;;;10.43;2.58;;;5.50;99.90;;;;;;20785564;28;20060;-84
2022/04/28 05:05:37;;;;;;;4.28;1.20;;;5.50;99.90;;;;;;20803296;28;20037;-84
2022/04/28 05:15:38;;;;;;;6.22;2.08;;;5.50;99.90;;;;;;20778759;28;20421;-83
2022/04/28 05:25:40;;;;;;;2.75;1.33;;;5.70;99.90;;;;;;20803827;28;20041;-84
2022/04/28 05:35:42;;;;;;;4.93;1.50;;;6.00;99.90;;;;;;20801187;28;20045;-83
2022/04/28 05:45:43;;;;;;;7.07;1.95;;;6.30;99.90;;;;;;20781760;28;20040;-83
2022/04/28 05:55:46;;;;;;;3.00;1.10;;;6.80;99.90;;;;;;20793839;28;20040;-84
2022/04/28 06:05:47;;;;;;;4.82;1.38;;;7.40;99.90;;;;;;20777091;28;20033;-83
2022/04/28 06:15:48;;;;;;;5.95;1.73;;;7.70;99.90;;;;;;20777541;28;20504;-83
2022/04/28 06:25:49;;;;;;;2.50;0.82;;;8.00;99.90;;;;;;20784942;28;20041;-83
2022/04/28 06:35:50;;;;;;;3.70;1.60;;;8.50;99.90;;;;;;20756126;28;20862;-83
2022/04/28 06:56:11;;;;;;;6.93;1.92;;;8.70;99.90;;;;;;20778844;28;20403;-84
2022/04/28 07:06:12;;;;;;;3.70;1.35;;;9.10;99.90;;;;;;20737288;28;20072;-82
2022/04/28 07:16:13;;;;;;;4.40;1.35;;;9.40;99.90;;;;;;20737239;28;20029;-84
2022/04/28 07:26:14;;;;;;;2.97;1.27;;;9.60;99.90;;;;;;20726119;28;20060;-84
2022/04/28 07:36:15;;;;;;;4.10;1.27;;;9.60;99.90;;;;;;20750225;28;20048;-84
2022/04/28 07:46:16;;;;;;;4.43;1.13;;;9.80;99.90;;;;;;20729701;28;20401;-83
2022/04/28 07:56:19;;;;;;;5.45;1.90;;;10.00;99.90;;;;;;20746256;28;20374;-83
2022/04/28 08:06:20;;;;;;;3.72;0.95;;;10.20;99.90;;;;;;20754956;28;20054;-84
2022/04/28 08:16:21;;;;;;;2.97;1.02;;;10.50;99.90;;;;;;20761341;28;20029;-82
2022/04/28 08:26:24;;;;;;;4.35;0.90;;;10.40;99.90;;;;;;20757466;28;20045;-84
2022/04/28 08:36:26;;;;;;;3.33;0.95;;;10.60;99.90;;;;;;20763542;28;20442;-84
2022/04/28 08:56:51;;;;;;;2.05;0.95;;;10.80;99.90;;;;;;20748144;28;20049;-83
2022/04/28 09:06:55;;;;;;;2.55;1.27;;;10.90;99.90;;;;;;20732066;28;20505;-83
2022/04/28 09:16:59;;;;;;;2.92;1.00;;;11.30;99.90;;;;;;20774985;28;20040;-82
2022/04/28 09:27:01;;;;;;;2.35;1.13;;;11.70;99.90;;;;;;20794149;28;20029;-83
2022/04/28 09:37:02;;;;;;;3.53;1.08;;;11.90;99.90;;;;;;20810561;28;20544;-82
2022/04/28 09:47:03;;;;;;;2.22;1.02;;;12.10;99.90;;;;;;20802405;28;20631;-81
2022/04/28 09:57:07;;;;;;;2.95;1.00;;;12.30;99.90;;;;;;20781425;28;20100;-82
2022/04/28 10:07:09;;;;;;;3.97;1.30;;;12.70;99.90;;;;;;20810141;28;20393;-83
2022/04/28 10:17:18;;;;;;;2.88;1.25;;;12.90;99.90;;;;;;20784279;28;20029;-82
2022/04/28 10:37:42;;;;;;;3.50;1.40;;;13.20;99.90;;;;;;20799849;28;20280;-83
2022/04/28 10:47:43;;;;;;;2.35;1.17;;;13.70;99.90;;;;;;20803568;28;20044;-85
2022/04/28 10:57:44;;;;;;;3.67;1.00;;;13.70;99.90;;;;;;20824082;28;20044;-84
2022/04/28 11:07:46;;;;;;;4.25;1.27;;;14.00;99.90;;;;;;20818744;28;20073;-84
2022/04/28 11:17:47;;;;;;;2.00;0.95;;;14.80;99.90;;;;;;20803519;28;20048;-84
2022/04/28 11:27:51;;;;;;;1.52;0.70;;;14.90;99.60;;;;;;20791157;28;20041;-84
2022/04/28 11:37:55;;;;;;;2.47;0.90;;;15.00;99.90;;;;;;20783589;28;20045;-84
2022/04/28 11:47:58;;;;;;;3.10;1.10;;;15.50;99.90;;;;;;20782460;28;20045;-84
2022/04/28 11:57:59;;;;;;;2.00;1.27;;;15.60;99.10;;;;;;20774610;28;20519;-84
2022/04/28 12:08:03;;;;;;;4.32;1.20;;;15.80;99.00;;;;;;20797619;28;20037;-84
2022/04/28 12:28:31;;;;;;;2.60;1.10;;;15.70;99.90;;;;;;20802300;28;20044;-84
2022/04/28 12:38:35;;;;;;;12.85;1.42;;;16.00;99.90;;;;;;20801484;28;20382;-84
2022/04/28 12:48:37;;;;;;;2.50;1.05;;;16.10;99.90;;;;;;20789882;28;20084;-82
2022/04/28 12:58:41;;;;;;;4.57;1.13;;;16.50;99.90;;;;;;20746216;28;20044;-85
2022/04/28 13:08:43;;;;;;;5.38;1.20;;;16.30;99.90;;;;;;20760695;28;20044;-86
2022/04/28 13:18:45;;;;;;;3.60;1.38;;;16.50;99.90;;;;;;20784196;28;20045;-84
2022/04/28 13:28:47;;;;;;;1.88;0.80;;;16.60;99.90;;;;;;20775651;28;20666;-84
2022/04/28 13:38:48;;;;;;;1.98;1.10;;;16.70;99.90;;;;;;20785011;28;20041;-84
2022/04/28 13:48:49;;;;;;;3.85;1.30;;;16.50;99.90;;;;;;20817671;28;20064;-84
2022/04/28 13:58:51;;;;;;;3.22;1.38;;;15.80;99.90;;;;;;20794984;28;20037;-84
2022/04/28 14:08:52;;;;;;;1.77;0.90;;;15.70;99.90;;;;;;20758836;28;20053;-83
2022/04/28 14:18:53;;;;;;;2.35;1.30;;;15.60;99.90;;;;;;20787894;28;20041;-83
2022/04/28 14:28:54;;;;;;;1.45;0.93;;;15.50;99.90;;;;;;20758460;28;20034;-83
2022/04/28 14:38:57;;;;;;;1.73;0.70;;;15.30;99.90;;;;;;20764999;28;20472;-84
2022/04/28 14:59:38;;;;;;;4.38;1.08;;;15.00;99.90;;;;;;20676715;28;20044;-83
2022/04/28 15:09:39;;;;;;;1.98;0.80;;;14.90;99.90;;;;;;20756700;28;20061;-84
2022/04/28 15:19:40;;;;;;;3.22;1.27;;;14.80;99.90;;;;;;20753421;28;20505;-83
2022/04/28 15:29:41;;;;;;;2.67;0.80;;;14.20;99.90;;;;;;20778756;28;20056;-83
2022/04/28 15:39:43;;;;;;;3.22;1.10;;;14.30;99.90;;;;;;20757469;28;20068;-83
2022/04/28 15:49:44;;;;;;;2.33;0.88;;;14.40;99.90;;;;;;20776192;28;20029;-83
2022/04/28 15:59:45;;;;;;;2.15;0.95;;;14.40;99.90;;;;;;20770143;28;20136;-83
2022/04/28 16:09:47;;;;;;;2.90;0.68;;;14.40;99.90;;;;;;20758332;28;20037;-83
2022/04/28 16:19:48;;;;;;;1.67;1.00;;;14.20;99.90;;;;;;20797477;28;20543;-83
2022/04/28 16:29:51;;;;;;;1.60;0.95;;;13.70;99.90;;;;;;20784606;28;20143;-83
2022/04/28 16:39:52;;;;;;;3.72;1.15;;;13.50;99.90;;;;;;20819754;28;20042;-83
2022/04/28 16:49:53;;;;;;;2.00;0.93;;;13.30;99.90;;;;;;20812914;28;20045;-84
2022/04/28 16:59:54;;;;;;;2.42;1.13;;;13.30;99.90;;;;;;20809100;28;20080;-82
2022/04/28 17:09:56;;;;;;;3.10;1.00;;;13.00;99.90;;;;;;20824769;28;20624;-83
2022/04/28 17:19:58;;;;;;;1.70;0.80;;;12.70;99.90;;;;;;20822641;28;20037;-83
2022/04/28 17:29:59;;;;;;;2.22;1.00;;;12.60;99.90;;;;;;20815585;28;20041;-82
2022/04/28 17:40:00;;;;;;;1.30;0.60;;;12.60;99.90;;;;;;20831933;28;20072;-83
2022/04/28 17:50:01;;;;;;;1.90;0.88;;;12.40;99.90;;;;;;20828377;28;20314;-82
2022/04/28 18:00:03;;;;;;;3.08;0.73;;;12.40;99.90;;;;;;20839695;28;20072;-82
2022/04/28 18:10:05;;;;;;;4.22;1.40;;;12.00;99.90;;;;;;20773308;28;20038;-83
2022/04/28 18:20:07;;;;;;;3.50;1.42;;;12.10;99.90;;;;;;20779363;28;20049;-83
2022/04/28 18:30:10;;;;;;;2.53;1.20;;;11.90;99.90;;;;;;20809640;28;20040;-84
2022/04/28 18:50:37;;;;;;;2.90;0.95;;;11.90;99.90;;;;;;20766779;28;20048;-83
2022/04/28 19:00:38;;;;;;;6.15;1.25;;;11.80;99.90;;;;;;20751799;28;20037;-83
2022/04/28 19:10:39;;;;;;;3.17;1.55;;;11.60;99.90;;;;;;20776591;28;20247;-83
2022/04/28 19:20:43;;;;;;;2.58;1.15;;;11.50;99.90;;;;;;20753831;28;20041;-83
2022/04/28 19:30:44;;;;;;;3.08;1.20;;;11.40;99.90;;;;;;20791708;28;20041;-83
2022/04/28 19:40:46;;;;;;;4.03;1.13;;;11.30;99.90;;;;;;20755677;28;20041;-82
2022/04/28 19:50:47;;;;;;;2.60;1.52;;;11.10;99.90;;;;;;20798607;28;20760;-83
2022/04/28 20:00:48;;;;;;;2.65;1.33;;;11.20;99.90;;;;;;20806890;28;20124;-83
2022/04/28 20:10:52;;;;;;;3.42;1.50;;;11.10;99.90;;;;;;20824546;28;20081;-83
2022/04/28 20:20:53;;;;;;;4.22;1.27;;;10.90;99.90;;;;;;20808063;28;20117;-83
2022/04/28 20:30:56;;;;;;;1.48;0.65;;;11.00;99.90;;;;;;20799433;28;20128;-83
2022/04/28 20:40:58;;;;;;;3.70;1.08;;;10.80;99.90;;;;;;20811878;28;20065;-83
2022/04/28 20:51:00;;;;;;;3.35;1.30;;;10.70;99.90;;;;;;20805735;28;20033;-82
2022/04/28 21:01:02;;;;;;;5.13;1.40;;;10.60;99.90;;;;;;20810293;28;20148;-82
2022/04/28 21:11:05;;;;;;;1.60;0.70;;;10.40;99.90;;;;;;20811760;28;20052;-83
2022/04/28 21:21:06;;;;;;;3.40;1.30;;;10.40;99.90;;;;;;20799297;28;20052;-83
2022/04/28 21:31:09;;;;;;;1.58;0.90;;;10.30;99.90;;;;;;20839024;28;20950;-83
2022/04/28 21:41:10;;;;;;;6.78;1.10;;;10.20;99.90;;;;;;20832381;28;20096;-83
2022/04/28 21:51:12;;;;;;;10.35;1.95;;;10.00;99.90;;;;;;20852859;28;20049;-82
2022/04/28 22:01:14;;;;;;;6.68;0.85;;;9.90;99.90;;;;;;20840670;28;20087;-82
2022/04/28 22:11:18;;;;;;;2.28;0.90;;;9.80;99.90;;;;;;20817857;28;20083;-83
2022/04/28 22:21:21;;;;;;;1.15;0.60;;;9.70;99.90;;;;;;20829123;28;20114;-83
2022/04/28 22:31:22;;;;;;;2.45;1.13;;;9.50;99.90;;;;;;20813541;28;20089;-83
2022/04/28 22:41:24;;;;;;;2.60;1.00;;;9.30;99.90;;;;;;20833843;28;20136;-83
2022/04/28 22:51:26;;;;;;;2.25;1.08;;;9.20;99.90;;;;;;20833164;28;20029;-83
2022/04/28 23:01:30;;;;;;;2.13;0.93;;;9.00;99.90;;;;;;20837290;28;20033;-83
2022/04/28 23:11:33;;;;;;;3.97;0.93;;;9.00;99.90;;;;;;20832715;28;20136;-83
2022/04/28 23:21:34;;;;;;;4.45;1.05;;;8.80;99.90;;;;;;20815319;28;20057;-83
2022/04/28 23:31:35;;;;;;;2.63;1.20;;;8.80;99.90;;;;;;20821383;28;20064;-83
2022/04/28 23:52:10;;;;;;;2.83;1.58;;;8.60;99.90;;;;;;20806124;28;20067;-83
